Time;durP1;ratioP1;P1;durP2;ratioP2;P2;SDS_P1;SDS_P2;PMS_P1;PMS_P2;Temp;Humidity;BMP_temperature;BMP_pressure;BME280_temperature;BME280_humidity;BME280_pressure;Samples;Min_cycle;Max_cycle;Signal;HPM_P1;HPM_P2
2023/08/28 00:01:58;;;;;;;5.93;3.00;;;;;;;23.40;58.97;65460.47;5071593;28;20220;-53
2023/08/28 00:04:24;;;;;;;3.13;2.83;;;;;;;23.41;59.29;65458.47;5070986;28;20207;-52
2023/08/28 00:06:51;;;;;;;3.97;3.38;;;;;;;23.49;58.34;65467.88;5071167;28;20263;-52
2023/08/28 00:09:16;;;;;;;5.03;3.05;;;;;;;23.35;58.91;65454.94;5071198;28;20229;-52
2023/08/28 00:11:42;;;;;;;3.72;2.90;;;;;;;23.38;59.00;65453.09;5071289;28;20237;-52
2023/08/28 00:14:08;;;;;;;4.13;3.05;;;;;;;23.33;59.05;65447.59;5071256;28;20188;-52
2023/08/28 00:16:34;;;;;;;4.82;2.95;;;;;;;23.28;59.39;65442.00;5071012;28;20598;-52
2023/08/28 00:18:59;;;;;;;3.47;2.95;;;;;;;23.21;59.70;65434.81;5070973;28;20616;-52
2023/08/28 00:21:25;;;;;;;7.03;3.20;;;;;;;23.23;59.80;65437.03;5052778;28;20628;-52
2023/08/28 00:23:51;;;;;;;4.28;2.60;;;;;;;23.05;59.86;65417.09;5070826;28;20196;-57
2023/08/28 00:26:16;;;;;;;4.20;2.75;;;;;;;23.21;59.11;65434.81;5070823;28;20549;-56
2023/08/28 00:28:42;;;;;;;7.68;2.60;;;;;;;23.04;59.32;65418.56;5070716;28;20200;-55
2023/08/28 00:31:07;;;;;;;6.43;2.97;;;;;;;23.18;58.93;65434.06;5070693;28;20287;-56
2023/08/28 00:33:33;;;;;;;4.25;3.15;;;;;;;23.01;59.51;65412.09;5070483;28;20203;-56
2023/08/28 00:35:59;;;;;;;3.67;2.70;;;;;;;23.10;58.93;65425.19;5052380;28;20193;-57
2023/08/28 00:38:25;;;;;;;4.18;2.80;;;;;;;22.95;59.92;65408.00;5053193;28;20204;-55
2023/08/28 00:40:51;;;;;;;3.83;3.00;;;;;;;22.77;59.94;65386.06;5070540;28;20257;-56
2023/08/28 00:43:16;;;;;;;6.57;2.92;;;;;;;22.97;59.92;65413.38;5070658;28;20205;-56
2023/08/28 00:45:43;;;;;;;3.78;2.90;;;;;;;22.94;59.86;65404.91;5070325;28;20679;-56
2023/08/28 00:48:11;;;;;;;4.43;2.65;;;;;;;22.87;59.28;65399.72;5070379;28;20235;-55
2023/08/28 00:50:37;;;;;;;5.15;3.08;;;;;;;22.93;59.55;65405.81;5070390;28;20208;-57
2023/08/28 00:53:03;;;;;;;5.03;2.83;;;;;;;22.90;58.86;65405.63;5070331;28;20208;-55
2023/08/28 00:55:32;;;;;;;4.57;2.95;;;;;;;22.67;60.21;65377.56;5070456;28;20205;-55
2023/08/28 00:57:57;;;;;;;6.88;3.13;;;;;;;22.81;59.90;65387.38;5070416;28;20286;-55
2023/08/28 01:00:23;;;;;;;4.72;2.78;;;;;;;22.97;58.30;65412.81;5070402;28;20643;-55
2023/08/28 01:02:49;;;;;;;5.68;2.80;;;;;;;22.87;58.65;65399.72;5070042;28;20292;-60
2023/08/28 01:05:16;;;;;;;5.82;2.83;;;;;;;22.89;58.73;65398.81;5070233;28;20230;-56
2023/08/28 01:08:02;;;;;;;5.93;2.95;;;;;;;22.87;58.64;65396.59;5070209;28;20578;-56
2023/08/28 01:10:35;;;;;;;7.10;2.83;;;;;;;22.74;59.97;65385.34;5070256;28;20216;-57
2023/08/28 01:13:41;;;;;;;4.57;2.80;;;;;;;22.97;59.01;65407.66;5070170;28;20208;-56
2023/08/28 01:16:07;;;;;;;4.63;3.10;;;;;;;22.99;59.00;65413.00;5047688;28;20307;-55
2023/08/28 01:18:34;;;;;;;3.88;2.92;;;;;;;22.91;58.93;65401.00;5069913;28;20201;-54
2023/08/28 01:21:01;;;;;;;3.95;3.33;;;;;;;22.88;59.08;65400.28;5069979;28;20288;-58
2023/08/28 01:23:29;;;;;;;6.95;3.38;;;;;;;22.84;59.32;65398.97;5069963;28;20223;-56
2023/08/28 01:25:56;;;;;;;4.15;2.85;;;;;;;22.90;59.18;65403.06;5069893;28;20203;-55
2023/08/28 01:28:25;;;;;;;7.82;3.10;;;;;;;22.72;60.21;65380.53;5051862;28;20220;-56
2023/08/28 01:30:51;;;;;;;4.20;3.28;;;;;;;22.87;59.44;65399.72;5069807;28;20204;-56
2023/08/28 01:33:18;;;;;;;4.10;2.90;;;;;;;22.93;59.24;65405.81;5069780;28;20778;-56
2023/08/28 01:35:52;;;;;;;3.88;2.85;;;;;;;22.98;59.26;65411.91;5070052;28;20204;-55
2023/08/28 01:38:19;;;;;;;4.97;2.95;;;;;;;22.71;59.61;65382.00;5069867;28;20243;-56
2023/08/28 01:40:54;;;;;;;3.90;2.78;;;;;;;22.54;60.08;65360.59;5069851;28;20212;-55
2023/08/28 01:43:23;;;;;;;5.95;2.75;;;;;;;22.31;60.71;65337.69;5069649;28;20240;-56
2023/08/28 01:45:52;;;;;;;3.75;3.25;;;;;;;22.21;61.25;65329.19;5069888;28;20290;-55
2023/08/28 01:48:18;;;;;;;7.15;3.28;;;;;;;22.20;61.96;65328.09;5069569;28;20719;-56
2023/08/28 01:50:43;;;;;;;7.65;2.90;;;;;;;22.16;62.22;65319.06;5069818;28;20228;-55
2023/08/28 01:53:11;;;;;;;5.28;3.20;;;;;;;22.16;62.01;65321.63;5069602;28;20245;-56
2023/08/28 01:55:36;;;;;;;4.63;3.10;;;;;;;22.15;62.38;65317.41;5069626;28;20258;-58
2023/08/28 01:58:02;;;;;;;6.97;3.20;;;;;;;22.25;61.76;65331.06;5069490;28;20221;-59
2023/08/28 02:00:27;;;;;;;5.60;3.45;;;;;;;22.23;61.89;65328.84;5069744;28;20358;-61
2023/08/28 02:02:53;;;;;;;4.22;3.50;;;;;;;22.20;62.18;65322.97;5070650;28;20705;-60
2023/08/28 02:05:18;;;;;;;3.65;3.22;;;;;;;22.30;61.90;65334.03;5073008;28;20200;-56
2023/08/28 02:07:44;;;;;;;4.22;2.83;;;;;;;22.33;60.63;65343.03;5072926;28;20217;-57
2023/08/28 02:10:09;;;;;;;3.70;3.13;;;;;;;22.22;61.01;65328.28;5072863;28;20203;-56
2023/08/28 02:12:35;;;;;;;5.20;2.95;;;;;;;22.27;62.26;65333.81;5072797;28;20266;-54
2023/08/28 02:15:00;;;;;;;4.35;2.90;;;;;;;22.33;61.67;65339.91;5072622;28;20268;-55
2023/08/28 02:17:25;;;;;;;3.83;3.17;;;;;;;22.28;62.30;65334.38;5054716;28;20212;-56
2023/08/28 02:19:51;;;;;;;6.50;3.33;;;;;;;22.30;62.49;65337.13;5072790;28;20284;-56
2023/08/28 02:22:18;;;;;;;3.40;3.08;;;;;;;22.27;62.82;65330.69;5072627;28;20266;-56
2023/08/28 02:24:43;;;;;;;4.57;3.13;;;;;;;22.16;62.86;65321.63;5054874;28;20269;-56
2023/08/28 02:27:09;;;;;;;4.53;3.28;;;;;;;22.24;62.25;65329.94;5072758;28;20799;-55
2023/08/28 02:29:35;;;;;;;5.18;2.92;;;;;;;22.19;62.62;65327.53;5072712;28;20219;-55
2023/08/28 02:32:00;;;;;;;3.45;2.80;;;;;;;22.12;62.80;65316.69;5072601;28;20717;-56
2023/08/28 02:34:26;;;;;;;7.63;3.58;;;;;;;22.11;62.55;65315.56;5072734;28;20617;-56
2023/08/28 02:36:51;;;;;;;4.05;3.22;;;;;;;22.04;63.14;65307.81;5072427;28;20742;-55
2023/08/28 02:39:17;;;;;;;4.55;3.30;;;;;;;22.10;62.43;65315.00;5072447;28;20196;-60
2023/08/28 02:41:42;;;;;;;4.72;3.38;;;;;;;22.06;62.54;65307.47;5071936;28;20240;-57
2023/08/28 02:44:07;;;;;;;5.80;2.90;;;;;;;21.96;63.20;65296.41;5070275;28;20201;-56
2023/08/28 02:46:33;;;;;;;4.07;3.10;;;;;;;21.86;63.55;65287.88;5070473;28;20707;-55
2023/08/28 02:48:59;;;;;;;4.22;3.10;;;;;;;21.87;63.78;65289.56;5052640;28;20205;-54
2023/08/28 02:51:24;;;;;;;4.65;3.05;;;;;;;21.84;64.08;65283.66;5071434;28;20216;-54
2023/08/28 02:53:50;;;;;;;6.47;3.47;;;;;;;21.96;64.26;65301.53;5072410;28;20189;-56
2023/08/28 02:56:24;;;;;;;3.35;2.80;;;;;;;22.03;64.44;65309.81;5054181;28;20717;-57
2023/08/28 02:58:51;;;;;;;5.03;3.22;;;;;;;21.99;63.29;65302.84;5054225;28;20592;-55
2023/08/28 03:01:17;;;;;;;4.65;2.90;;;;;;;22.00;63.21;65303.41;5071920;28;20209;-55
2023/08/28 03:03:43;;;;;;;5.47;2.65;;;;;;;21.84;64.19;65286.22;5071971;28;20622;-55
2023/08/28 03:06:09;;;;;;;3.90;3.40;;;;;;;21.87;64.87;65286.44;5071751;28;20318;-54
2023/08/28 03:08:34;;;;;;;5.22;3.53;;;;;;;21.77;64.36;65281.03;5072134;28;20669;-56
2023/08/28 03:10:59;;;;;;;4.60;3.45;;;;;;;21.75;64.60;65276.25;5072121;28;20663;-55
2023/08/28 03:13:25;;;;;;;4.18;3.10;;;;;;;21.88;63.96;65293.22;5071381;28;20785;-54
2023/08/28 03:15:51;;;;;;;6.82;3.25;;;;;;;21.67;65.73;65269.97;5071144;28;20205;-60
2023/08/28 03:18:16;;;;;;;3.88;2.97;;;;;;;21.74;64.74;65277.72;5053779;28;20204;-54
2023/08/28 03:20:42;;;;;;;4.25;3.33;;;;;;;21.85;64.98;65289.91;5071661;28;20209;-60
2023/08/28 03:23:09;;;;;;;4.93;3.42;;;;;;;21.73;66.04;65272.00;5071676;28;20204;-54
2023/08/28 03:25:35;;;;;;;4.20;3.10;;;;;;;21.74;66.22;65275.13;5071816;28;20274;-56
2023/08/28 03:28:02;;;;;;;7.45;3.80;;;;;;;21.81;65.58;65282.34;5071551;28;20216;-56
2023/08/28 03:30:27;;;;;;;5.32;3.83;;;;;;;21.76;66.03;65277.34;5071626;28;20204;-56
2023/08/28 03:32:53;;;;;;;5.00;3.55;;;;;;;21.67;67.11;65270.50;5071627;28;20291;-57
2023/08/28 03:35:19;;;;;;;4.95;3.70;;;;;;;21.82;66.75;65284.00;5071621;28;20553;-54
2023/08/28 03:37:44;;;;;;;6.93;3.95;;;;;;;21.81;67.05;65282.34;5071197;28;20596;-54
2023/08/28 03:40:11;;;;;;;5.82;3.10;;;;;;;21.86;67.33;65285.31;5071375;28;20272;-55
2023/08/28 03:42:36;;;;;;;5.50;4.00;;;;;;;21.95;66.96;65295.28;5071310;28;20296;-55
2023/08/28 03:45:02;;;;;;;8.23;3.80;;;;;;;21.96;67.06;65296.41;5071215;28;20366;-59
2023/08/28 03:47:27;;;;;;;6.13;4.05;;;;;;;22.10;66.23;65314.47;5036615;28;20212;-57
2023/08/28 03:49:53;;;;;;;4.28;3.92;;;;;;;22.16;66.65;65321.09;5071246;28;20193;-56
2023/08/28 03:52:19;;;;;;;7.22;4.68;;;;;;;21.95;67.08;65297.84;5071667;28;20220;-56
2023/08/28 03:54:44;;;;;;;11.45;4.78;;;;;;;21.69;68.65;65272.72;5071174;28;20581;-55
2023/08/28 03:57:10;;;;;;;12.93;4.45;;;;;;;21.72;69.10;65272.94;5070991;28;20351;-55
2023/08/28 03:59:35;;;;;;;6.85;4.57;;;;;;;21.74;68.68;65275.69;5071147;28;20200;-56
2023/08/28 04:02:03;;;;;;;7.85;4.00;;;;;;;21.65;69.38;65263.16;5071282;28;20213;-55
2023/08/28 04:04:28;;;;;;;9.98;5.32;;;;;;;21.61;69.47;65261.31;5071022;28;20286;-55
2023/08/28 04:06:54;;;;;;;5.65;4.13;;;;;;;21.56;69.91;65253.22;5070739;28;20263;-55
2023/08/28 04:09:20;;;;;;;7.22;4.93;;;;;;;21.64;69.60;65267.19;5052772;28;20204;-55
2023/08/28 04:11:45;;;;;;;6.18;4.40;;;;;;;21.76;69.64;65277.34;5070764;28;20215;-55
2023/08/28 04:14:11;;;;;;;5.38;4.05;;;;;;;22.00;68.87;65300.81;5053525;28;20785;-55
2023/08/28 04:16:36;;;;;;;5.55;4.30;;;;;;;22.11;68.42;65313.00;5071126;28;20625;-55
2023/08/28 04:19:09;;;;;;;6.25;3.80;;;;;;;22.05;68.04;65311.47;5071273;28;20199;-54
2023/08/28 04:21:34;;;;;;;5.38;3.97;;;;;;;22.10;67.69;65312.44;5071055;28;20275;-55
2023/08/28 04:24:00;;;;;;;6.03;3.80;;;;;;;22.43;65.67;65348.41;5053017;28;20632;-54
2023/08/28 04:26:26;;;;;;;9.00;4.00;;;;;;;22.69;63.93;65382.34;5070218;28;20663;-54
2023/08/28 04:28:51;;;;;;;5.45;4.55;;;;;;;22.79;64.28;65390.28;5070747;28;20204;-55
2023/08/28 04:31:17;;;;;;;7.60;4.60;;;;;;;22.94;65.06;65407.47;5071038;28;20209;-55
2023/08/28 04:33:42;;;;;;;5.47;4.70;;;;;;;22.91;65.27;65401.56;5070544;28;20296;-56
2023/08/28 04:36:07;;;;;;;6.75;4.88;;;;;;;22.79;65.66;65390.28;5070822;28;20295;-54
2023/08/28 04:38:33;;;;;;;5.50;4.53;;;;;;;22.47;67.03;65353.41;5070681;28;20197;-56
2023/08/28 04:40:59;;;;;;;6.65;4.55;;;;;;;22.49;66.23;65355.59;5052664;28;20682;-55
2023/08/28 04:43:24;;;;;;;7.40;4.57;;;;;;;22.60;68.84;65369.81;5070756;28;20272;-55
2023/08/28 04:45:50;;;;;;;8.25;4.85;;;;;;;22.88;66.35;65400.84;5070554;28;20207;-55
2023/08/28 04:48:15;;;;;;;6.60;5.32;;;;;;;22.67;66.28;65374.44;5070464;28;20729;-56
2023/08/28 04:50:41;;;;;;;8.05;5.90;;;;;;;22.72;66.69;65382.56;5070451;28;20205;-56
2023/08/28 04:53:07;;;;;;;6.85;4.93;;;;;;;22.68;66.51;65375.56;5052417;28;20216;-55
2023/08/28 04:55:32;;;;;;;17.70;15.93;;;;;;;22.39;68.82;65347.09;5070386;28;20197;-56
2023/08/28 04:57:58;;;;;;;12.65;9.65;;;;;;;22.25;70.54;65331.06;5070279;28;20208;-54
2023/08/28 05:00:23;;;;;;;8.35;5.25;;;;;;;22.25;67.52;65329.03;5052168;28;20693;-56
2023/08/28 05:02:49;;;;;;;6.40;4.22;;;;;;;22.29;67.97;65332.91;5070075;28;20201;-58
2023/08/28 05:05:14;;;;;;;7.63;4.57;;;;;;;22.40;68.67;65347.66;5070378;28;20184;-56
2023/08/28 05:07:39;;;;;;;7.45;4.45;;;;;;;22.43;67.25;65348.97;5070151;28;20308;-55
2023/08/28 05:10:05;;;;;;;8.27;5.15;;;;;;;22.14;68.72;65318.88;5052185;28;20626;-57
2023/08/28 05:12:31;;;;;;;9.55;5.00;;;;;;;22.20;69.41;65322.97;5052071;28;20204;-56
2023/08/28 05:14:57;;;;;;;8.52;4.40;;;;;;;22.16;68.76;65321.09;5070132;28;20208;-57
2023/08/28 05:17:22;;;;;;;11.52;4.70;;;;;;;21.89;69.11;65291.78;5070354;28;20223;-57
2023/08/28 05:19:47;;;;;;;5.35;4.43;;;;;;;21.87;71.83;65289.00;5070367;28;20582;-56
2023/08/28 05:22:13;;;;;;;6.75;4.25;;;;;;;21.93;70.31;65295.63;5070204;28;20737;-55
2023/08/28 05:24:40;;;;;;;7.75;4.68;;;;;;;21.92;70.77;65295.06;5070143;28;20216;-56
2023/08/28 05:27:05;;;;;;;11.50;5.80;;;;;;;21.92;72.67;65292.50;5069970;28;20274;-57
2023/08/28 05:29:31;;;;;;;5.78;4.25;;;;;;;22.06;69.93;65307.47;5069913;28;20204;-56
2023/08/28 05:31:56;;;;;;;7.40;4.65;;;;;;;21.83;72.07;65285.13;5069911;28;20209;-56
2023/08/28 05:34:22;;;;;;;9.18;5.05;;;;;;;21.72;71.58;65270.38;5069909;28;20271;-59
2023/08/28 05:36:48;;;;;;;7.10;4.82;;;;;;;21.82;71.40;65284.00;5069184;28;20209;-56
2023/08/28 05:39:13;;;;;;;6.22;4.97;;;;;;;21.74;71.98;65275.13;5054685;28;20204;-55
2023/08/28 05:41:38;;;;;;;7.30;4.43;;;;;;;21.85;71.37;65284.78;5071543;28;20232;-55
2023/08/28 05:44:04;;;;;;;7.97;4.60;;;;;;;21.83;71.14;65284.56;5072508;28;20641;-56
2023/08/28 05:46:29;;;;;;;7.90;4.18;;;;;;;21.84;70.91;65285.66;5053969;28;20215;-55
2023/08/28 05:48:56;;;;;;;6.35;5.28;;;;;;;21.79;71.58;65280.69;5071945;28;20651;-56
2023/08/28 05:51:21;;;;;;;7.18;4.93;;;;;;;21.87;71.59;65289.00;5073308;28;20667;-54
2023/08/28 05:53:46;;;;;;;7.65;4.82;;;;;;;21.79;71.55;65280.69;5055099;28;20201;-55
2023/08/28 05:56:12;;;;;;;6.68;4.72;;;;;;;22.00;70.16;65303.94;5073103;28;20215;-55
2023/08/28 05:58:37;;;;;;;9.85;4.82;;;;;;;22.05;69.79;65309.47;5073200;28;20706;-56
2023/08/28 06:01:03;;;;;;;5.75;4.53;;;;;;;22.04;69.16;65307.81;5073381;28;20649;-55
2023/08/28 06:03:28;;;;;;;6.30;4.40;;;;;;;21.97;69.87;65300.63;5073111;28;20200;-55
2023/08/28 06:05:55;;;;;;;6.47;4.65;;;;;;;21.99;70.84;65299.72;5073029;28;20208;-55
2023/08/28 06:08:20;;;;;;;10.07;4.88;;;;;;;22.16;70.19;65319.06;5072807;28;20216;-56
2023/08/28 06:10:46;;;;;;;7.65;4.82;;;;;;;22.26;68.71;65332.16;5072599;28;20588;-56
2023/08/28 06:13:12;;;;;;;7.68;4.20;;;;;;;22.35;68.36;65339.56;5072812;28;20599;-55
2023/08/28 06:15:37;;;;;;;8.02;4.50;;;;;;;22.45;68.33;65355.75;5072848;28;20294;-56
2023/08/28 06:18:04;;;;;;;5.50;4.75;;;;;;;22.56;67.19;65365.91;5072603;28;20684;-56
2023/08/28 06:20:30;;;;;;;15.77;5.25;;;;;;;22.64;73.08;65371.13;5072889;28;20212;-59
2023/08/28 06:22:56;;;;;;;7.82;5.13;;;;;;;22.81;67.24;65390.50;5072904;28;20204;-55
2023/08/28 06:25:22;;;;;;;6.25;4.60;;;;;;;22.72;67.76;65380.00;5072706;28;20207;-55
2023/08/28 06:27:48;;;;;;;5.85;4.60;;;;;;;22.88;71.03;65397.69;5054400;28;20725;-54
2023/08/28 06:30:13;;;;;;;7.40;4.50;;;;;;;23.15;73.98;65428.16;5072749;28;20281;-55
2023/08/28 06:32:39;;;;;;;6.40;4.82;;;;;;;23.35;67.94;65452.38;5072659;28;20296;-54
2023/08/28 06:35:05;;;;;;;7.40;4.68;;;;;;;23.51;71.19;65469.53;5072541;28;20197;-54
2023/08/28 06:37:31;;;;;;;9.65;5.45;;;;;;;23.64;63.71;65483.94;5072402;28;20208;-55
2023/08/28 06:39:57;;;;;;;7.82;5.13;;;;;;;23.59;64.68;65476.38;5072610;28;20203;-55
2023/08/28 06:42:22;;;;;;;7.47;4.05;;;;;;;23.61;64.84;65478.03;5072469;28;20209;-55
2023/08/28 06:44:48;;;;;;;7.53;5.05;;;;;;;23.73;63.08;65491.91;5072479;28;20286;-54
2023/08/28 06:47:14;;;;;;;6.55;4.38;;;;;;;23.82;64.86;65503.88;5072640;28;20581;-59
2023/08/28 06:49:41;;;;;;;6.72;4.20;;;;;;;23.91;65.46;65513.88;5071982;28;20177;-55
2023/08/28 06:52:08;;;;;;;6.28;4.97;;;;;;;24.08;60.57;65530.16;5072133;28;20230;-54
2023/08/28 06:54:34;;;;;;;13.57;4.97;;;;;;;24.00;62.03;65523.84;5054261;28;20524;-54
2023/08/28 06:57:00;;;;;;;8.80;4.57;;;;;;;24.02;64.63;65526.06;5072238;28;20227;-54
2023/08/28 06:59:25;;;;;;;8.68;5.38;;;;;;;24.08;62.08;65528.13;5072286;28;20212;-54
2023/08/28 07:01:51;;;;;;;6.25;4.10;;;;;;;24.22;66.14;65547.72;5072334;28;20296;-55
2023/08/28 07:04:16;;;;;;;9.20;5.07;;;;;;;24.41;66.13;65569.34;5072226;28;20231;-55
2023/08/28 07:06:42;;;;;;;9.85;4.65;;;;;;;24.71;59.79;65596.88;5071918;28;20219;-54
2023/08/28 07:09:07;;;;;;;6.70;4.78;;;;;;;24.67;58.93;65597.59;5072058;28;20585;-53
2023/08/28 07:11:34;;;;;;;6.90;4.70;;;;;;;24.62;58.55;65592.63;5072197;28;20694;-52
2023/08/28 07:14:01;;;;;;;19.52;12.27;;;;;;;24.60;59.37;65587.28;5054015;28;20208;-53
2023/08/28 07:16:27;;;;;;;10.82;5.50;;;;;;;24.56;59.26;65588.56;5071815;28;20220;-54
2023/08/28 07:18:52;;;;;;;8.80;5.70;;;;;;;24.56;59.64;65585.41;5072047;28;20546;-53
2023/08/28 07:21:18;;;;;;;10.32;5.70;;;;;;;24.47;59.53;65573.41;5072079;28;20273;-53
2023/08/28 07:23:43;;;;;;;10.82;4.82;;;;;;;24.43;59.45;65566.41;5071752;28;20204;-53
2023/08/28 07:26:09;;;;;;;8.10;5.50;;;;;;;24.50;58.66;65576.19;5071389;28;20212;-57
2023/08/28 07:28:34;;;;;;;9.48;4.93;;;;;;;24.64;59.00;65594.84;5071668;28;20224;-54
2023/08/28 07:31:01;;;;;;;7.63;5.18;;;;;;;24.74;58.57;65602.81;5071310;28;20651;-53
2023/08/28 07:33:27;;;;;;;7.85;5.38;;;;;;;24.94;57.75;65625.56;5071662;28;20204;-53
2023/08/28 07:35:52;;;;;;;10.63;5.07;;;;;;;24.97;56.78;65631.47;5071302;28;20628;-53
2023/08/28 07:38:18;;;;;;;8.75;5.82;;;;;;;24.98;57.17;65630.00;5071483;28;20309;-53
2023/08/28 07:40:46;;;;;;;11.88;5.13;;;;;;;24.98;57.57;65630.00;5071310;28;20690;-53
2023/08/28 07:43:11;;;;;;;10.05;5.63;;;;;;;25.07;56.68;65639.44;5071390;28;20193;-53
2023/08/28 07:45:37;;;;;;;8.43;5.68;;;;;;;25.15;57.47;65647.75;5071621;28;20211;-52
2023/08/28 07:48:03;;;;;;;7.85;5.95;;;;;;;25.26;56.76;65662.53;5071131;28;20318;-51
2023/08/28 07:50:30;;;;;;;10.60;5.35;;;;;;;25.35;55.27;65669.97;5071243;28;20189;-54
2023/08/28 07:52:56;;;;;;;6.85;5.05;;;;;;;25.58;54.61;65698.09;5071228;28;20691;-54
2023/08/28 07:55:22;;;;;;;11.65;5.85;;;;;;;25.66;54.01;65704.38;5071522;28;20211;-58
2023/08/28 07:57:47;;;;;;;6.10;4.85;;;;;;;25.88;52.59;65730.84;5071125;28;20291;-57
2023/08/28 08:00:15;;;;;;;9.52;4.72;;;;;;;25.81;52.36;65721.03;5070388;28;20199;-53
2023/08/28 08:02:41;;;;;;;6.40;4.60;;;;;;;25.75;55.28;65714.94;5071161;28;20213;-53
2023/08/28 08:05:10;;;;;;;10.35;5.50;;;;;;;25.89;54.85;65731.94;5070899;28;20282;-54
2023/08/28 08:07:39;;;;;;;8.65;5.10;;;;;;;26.02;54.23;65741.22;5070784;28;20266;-54
2023/08/28 08:10:06;;;;;;;7.25;5.85;;;;;;;26.16;52.48;65762.50;5070939;28;20201;-54
2023/08/28 08:12:32;;;;;;;6.80;4.85;;;;;;;26.29;51.44;65774.38;5070794;28;20204;-53
2023/08/28 08:14:57;;;;;;;8.57;5.00;;;;;;;26.54;51.61;65801.59;5070908;28;20196;-54
2023/08/28 08:17:23;;;;;;;33.38;18.27;;;;;;;26.48;53.14;65795.47;5070542;28;20266;-52
2023/08/28 08:19:49;;;;;;;8.18;5.57;;;;;;;26.41;52.39;65787.69;5070919;28;20600;-54
2023/08/28 08:22:14;;;;;;;6.75;5.00;;;;;;;26.72;52.35;65821.06;5071201;28;20243;-53
2023/08/28 08:24:40;;;;;;;10.70;5.03;;;;;;;27.08;50.76;65861.06;5071013;28;20295;-54
2023/08/28 08:27:05;;;;;;;7.75;4.93;;;;;;;26.94;51.56;65846.06;5071032;28;20354;-57
2023/08/28 08:29:30;;;;;;;9.73;5.25;;;;;;;27.24;50.25;65876.25;5070970;28;20638;-54
2023/08/28 08:31:56;;;;;;;10.50;6.15;;;;;;;27.16;51.57;65867.38;5070730;28;20213;-53
2023/08/28 08:34:21;;;;;;;6.88;5.90;;;;;;;27.10;50.64;65863.84;5070981;28;20196;-52
2023/08/28 08:36:47;;;;;;;10.13;5.15;;;;;;;27.38;49.79;65894.44;5070606;28;20200;-55
2023/08/28 08:39:12;;;;;;;9.68;5.18;;;;;;;27.58;49.84;65916.13;5052941;28;20583;-54
2023/08/28 08:41:39;;;;;;;10.88;5.78;;;;;;;27.66;50.07;65925.00;5071046;28;20693;-53
2023/08/28 08:44:05;;;;;;;11.77;9.35;;;;;;;27.76;49.13;65934.09;5070835;28;20259;-53
2023/08/28 08:46:31;;;;;;;10.55;5.63;;;;;;;27.71;49.44;65928.56;5070713;28;20209;-54
2023/08/28 08:49:00;;;;;;;9.63;6.40;;;;;;;27.69;49.28;65928.91;5070918;28;20173;-53
2023/08/28 08:51:30;;;;;;;16.10;10.35;;;;;;;27.68;48.67;65927.78;5070981;28;20204;-53
2023/08/28 08:54:05;;;;;;;10.20;6.13;;;;;;;28.02;47.71;65965.06;5070876;28;20204;-53
2023/08/28 08:56:32;;;;;;;9.15;5.70;;;;;;;28.19;47.48;65984.00;5070603;28;20245;-54
2023/08/28 08:58:58;;;;;;;8.70;5.03;;;;;;;28.22;45.45;65985.28;5070577;28;20258;-52
2023/08/28 09:01:25;;;;;;;10.25;5.40;;;;;;;28.17;45.43;65981.78;5070510;28;20244;-52
2023/08/28 09:03:51;;;;;;;10.95;6.20;;;;;;;28.22;45.25;65987.31;5070346;28;20197;-53
2023/08/28 09:06:17;;;;;;;11.63;4.90;;;;;;;28.39;45.56;66006.25;5070622;28;20217;-53
2023/08/28 09:08:42;;;;;;;8.10;5.10;;;;;;;28.61;44.84;66028.16;5070332;28;20254;-53
2023/08/28 09:11:08;;;;;;;8.30;5.47;;;;;;;28.82;43.80;66054.13;5070415;28;20570;-52
2023/08/28 09:13:41;;;;;;;10.32;4.55;;;;;;;29.13;42.95;66088.09;5070092;28;20647;-54
2023/08/28 09:16:07;;;;;;;7.15;4.43;;;;;;;29.45;42.54;66121.13;5070193;28;20223;-54
2023/08/28 09:18:32;;;;;;;9.75;4.82;;;;;;;29.75;43.21;66157.19;5070130;28;20193;-53
2023/08/28 09:21:09;;;;;;;29.52;14.73;;;;;;;29.74;40.09;66156.06;5069810;28;20216;-53
2023/08/28 09:23:41;;;;;;;14.85;10.65;;;;;;;29.53;39.88;66130.06;5070161;28;20245;-53
2023/08/28 09:26:07;;;;;;;9.50;7.80;;;;;;;29.96;38.98;66176.88;5069836;28;20217;-53
2023/08/28 09:28:32;;;;;;;9.43;4.82;;;;;;;29.82;37.56;66164.97;5069928;28;20721;-53
2023/08/28 09:30:57;;;;;;;6.85;4.20;;;;;;;30.13;36.98;66198.41;5070110;28;20557;-53
2023/08/28 09:33:24;;;;;;;9.35;3.83;;;;;;;30.42;34.72;66228.16;5069852;28;20636;-53
2023/08/28 09:35:50;;;;;;;14.18;10.52;;;;;;;30.39;33.99;66224.81;5051702;28;20775;-53
2023/08/28 09:38:15;;;;;;;4.97;3.80;;;;;;;30.52;35.26;66241.91;5069518;28;20229;-52
2023/08/28 09:40:41;;;;;;;4.85;3.70;;;;;;;31.05;36.05;66295.81;5069772;28;20263;-53
2023/08/28 09:43:15;;;;;;;7.13;3.88;;;;;;;31.50;35.81;66350.13;5069789;28;20209;-53
2023/08/28 09:45:42;;;;;;;7.32;4.18;;;;;;;31.68;35.14;66365.56;5068103;28;20209;-56
2023/08/28 09:48:09;;;;;;;5.13;4.28;;;;;;;31.94;35.56;66394.03;5068938;28;20287;-58
2023/08/28 09:50:38;;;;;;;9.32;5.40;;;;;;;31.85;33.52;66384.53;5069781;28;20345;-54
2023/08/28 09:53:12;;;;;;;8.48;3.90;;;;;;;32.21;32.97;66426.78;5068255;28;20291;-53
2023/08/28 09:55:50;;;;;;;5.28;3.38;;;;;;;32.48;32.10;66456.94;5069887;28;20223;-53
2023/08/28 09:58:16;;;;;;;10.00;4.18;;;;;;;32.47;31.57;66455.81;5069621;28;20228;-53
2023/08/28 10:00:43;;;;;;;5.65;3.65;;;;;;;32.49;32.82;66457.50;5069884;28;20223;-56
2023/08/28 10:03:10;;;;;;;8.95;3.72;;;;;;;32.97;32.90;66511.13;5069446;28;20204;-54
2023/08/28 10:05:37;;;;;;;6.93;3.60;;;;;;;32.95;31.85;66509.41;5051609;28;20236;-54
2023/08/28 10:08:08;;;;;;;7.00;3.30;;;;;;;33.62;31.04;66583.19;5051248;28;20213;-52
2023/08/28 10:10:37;;;;;;;6.75;3.67;;;;;;;34.18;29.61;66645.81;5069511;28;20201;-60
2023/08/28 10:13:05;;;;;;;4.63;2.80;;;;;;;34.68;29.22;66701.75;5069493;28;20695;-51
2023/08/28 10:15:41;;;;;;;8.30;3.53;;;;;;;34.83;29.10;66714.81;5051485;28;20201;-52
2023/08/28 10:18:21;;;;;;;6.25;3.65;;;;;;;34.79;28.34;66713.50;5069231;28;20299;-51
2023/08/28 10:20:48;;;;;;;8.57;3.80;;;;;;;35.16;27.28;66754.34;5069493;28;20207;-52
2023/08/28 10:23:15;;;;;;;6.10;3.22;;;;;;;34.85;27.54;66719.66;5069596;28;20201;-52
2023/08/28 10:25:42;;;;;;;9.95;6.78;;;;;;;34.29;28.27;66660.75;5073136;28;20216;-53
2023/08/28 10:28:08;;;;;;;10.02;4.10;;;;;;;34.84;27.08;66719.09;5072947;28;20239;-53
2023/08/28 10:30:38;;;;;;;8.65;4.07;;;;;;;34.36;26.86;66665.94;5054857;28;20209;-52
2023/08/28 10:33:08;;;;;;;6.50;3.15;;;;;;;34.22;26.93;66647.66;5072948;28;20200;-52
2023/08/28 10:35:35;;;;;;;9.15;4.53;;;;;;;34.66;27.45;66699.50;5054940;28;20208;-52
2023/08/28 10:38:03;;;;;;;5.43;3.80;;;;;;;35.22;26.65;66761.06;5054864;28;20273;-52
2023/08/28 10:40:30;;;;;;;6.63;4.40;;;;;;;34.51;27.62;66679.56;5072720;28;20236;-52
2023/08/28 10:42:57;;;;;;;5.68;3.78;;;;;;;35.30;28.69;66770.03;5072579;28;20258;-52
2023/08/28 10:45:23;;;;;;;5.50;4.40;;;;;;;35.92;27.01;66842.06;5072529;28;20201;-53
2023/08/28 10:47:49;;;;;;;8.00;3.97;;;;;;;35.31;27.02;66769.06;5072291;28;20638;-52
2023/08/28 10:50:15;;;;;;;4.65;3.10;;;;;;;35.50;27.31;66789.81;5072086;28;20232;-53
2023/08/28 10:52:41;;;;;;;9.82;4.15;;;;;;;36.22;28.13;66867.78;5071982;28;20245;-52
2023/08/28 10:55:07;;;;;;;10.52;7.88;;;;;;;35.83;27.37;66829.38;5072108;28;20200;-53
2023/08/28 10:57:39;;;;;;;11.15;5.65;;;;;;;34.94;27.68;66729.72;5072260;28;20201;-53
2023/08/28 11:00:24;;;;;;;7.90;4.45;;;;;;;35.89;27.46;66836.09;5072306;28;20189;-52
2023/08/28 11:03:07;;;;;;;9.40;6.50;;;;;;;35.50;27.51;66792.44;5072186;28;20227;-53
2023/08/28 11:05:34;;;;;;;8.63;3.60;;;;;;;35.67;27.78;66810.91;5072167;28;20215;-52
2023/08/28 11:08:06;;;;;;;8.23;6.35;;;;;;;36.04;27.69;66852.91;5071914;28;20228;-52
2023/08/28 11:10:34;;;;;;;6.18;3.97;;;;;;;35.97;26.85;66841.88;5071853;28;20205;-52
2023/08/28 11:13:05;;;;;;;6.65;3.70;;;;;;;36.57;27.16;66909.09;5071749;28;20213;-51
2023/08/28 11:15:38;;;;;;;5.80;3.33;;;;;;;37.11;27.69;66968.50;5072057;28;20205;-52
2023/08/28 11:18:30;;;;;;;8.30;4.13;;;;;;;37.41;27.07;67004.75;5071741;28;20296;-51
2023/08/28 11:21:05;;;;;;;6.25;5.05;;;;;;;36.01;28.08;66846.34;5063120;28;20310;-51
2023/08/28 11:23:35;;;;;;;8.48;4.20;;;;;;;36.54;27.86;66905.72;5071509;28;20215;-53
2023/08/28 11:26:27;;;;;;;4.10;3.70;;;;;;;37.21;27.78;66982.88;5071730;28;20287;-53
2023/08/28 11:28:52;;;;;;;5.88;3.83;;;;;;;37.54;26.78;67019.88;5071693;28;20196;-53
2023/08/28 11:31:21;;;;;;;7.63;3.95;;;;;;;37.13;26.91;66968.63;5071449;28;20301;-53